createdAt,value
2023-02-23T00:00:00.921Z,7.91
2023-02-23T00:03:03.003Z,7.91
2023-02-23T00:06:04.868Z,7.85
2023-02-23T00:09:14.854Z,7.80
2023-02-23T00:12:17.176Z,7.77
2023-02-23T00:15:19.081Z,7.75
2023-02-23T00:18:21.040Z,7.73
2023-02-23T00:21:23.800Z,7.73
2023-02-23T00:24:27.144Z,7.74
2023-02-23T00:27:28.640Z,7.76
2023-02-23T00:30:32.235Z,7.77
2023-02-23T00:33:34.761Z,7.76
2023-02-23T00:36:36.698Z,7.77
2023-02-23T00:39:39.936Z,7.79
2023-02-23T00:42:41.642Z,7.81
2023-02-23T00:45:43.461Z,7.85
2023-02-23T00:48:46.177Z,7.87
2023-02-23T00:51:48.111Z,7.87
2023-02-23T00:54:51.503Z,7.89
2023-02-23T00:57:53.062Z,7.91
2023-02-23T01:00:54.856Z,7.91
2023-02-23T01:03:56.841Z,7.90
2023-02-23T01:06:58.954Z,7.88
2023-02-23T01:10:07.847Z,7.88
2023-02-23T01:13:11.005Z,7.84
2023-02-23T01:16:13.649Z,7.82
2023-02-23T01:19:18.173Z,7.83
2023-02-23T01:22:19.725Z,7.85
2023-02-23T01:25:24.685Z,7.81
2023-02-23T01:28:26.599Z,7.80
2023-02-23T01:31:29.518Z,7.78
2023-02-23T01:34:31.188Z,7.77
2023-02-23T01:37:35.381Z,7.76
2023-02-23T01:40:42.897Z,7.73
2023-02-23T01:43:59.349Z,7.72
2023-02-23T01:47:01.184Z,7.71
2023-02-23T01:50:02.908Z,7.71
2023-02-23T01:53:05.439Z,7.70
2023-02-23T01:56:12.496Z,7.69
2023-02-23T01:59:15.343Z,7.67
2023-02-23T02:02:17.187Z,7.66
2023-02-23T02:05:18.844Z,7.65
2023-02-23T02:08:25.089Z,7.64
2023-02-23T02:11:30.950Z,7.60
2023-02-23T02:14:32.515Z,7.59
2023-02-23T02:17:38.364Z,7.57
2023-02-23T02:20:53.966Z,7.57
2023-02-23T02:24:10.422Z,7.55
2023-02-23T02:27:20.995Z,7.56
2023-02-23T02:30:39.658Z,7.57
2023-02-23T02:33:55.595Z,7.56
2023-02-23T02:37:14.994Z,7.61
2023-02-23T02:40:22.508Z,7.63
2023-02-23T02:43:31.176Z,7.64
2023-02-23T02:46:35.332Z,7.63
2023-02-23T02:49:43.162Z,7.64
2023-02-23T02:52:50.013Z,7.61
2023-02-23T02:55:56.104Z,7.60
2023-02-23T02:58:59.878Z,7.57
2023-02-23T03:02:20.881Z,7.60
2023-02-23T03:05:43.856Z,7.60
2023-02-23T03:09:09.200Z,7.54
2023-02-23T03:12:38.155Z,7.54
2023-02-23T03:16:03.812Z,7.54
2023-02-23T03:19:29.848Z,7.54
2023-02-23T03:22:53.843Z,7.54
2023-02-23T03:26:19.303Z,7.53
2023-02-23T03:29:45.890Z,7.50
2023-02-23T03:33:08.195Z,7.48
2023-02-23T03:36:33.279Z,7.43
2023-02-23T03:39:59.611Z,7.36
2023-02-23T03:43:21.186Z,7.31
2023-02-23T03:46:44.145Z,7.30
2023-02-23T03:50:06.901Z,7.26
2023-02-23T03:53:30.402Z,7.25
2023-02-23T03:56:52.120Z,7.23
2023-02-23T04:00:13.755Z,7.22
2023-02-23T04:03:36.804Z,7.21
2023-02-23T04:06:59.028Z,7.21
2023-02-23T04:10:19.848Z,7.21
2023-02-23T04:13:24.153Z,7.20
2023-02-23T04:16:25.736Z,7.20
2023-02-23T04:19:29.369Z,7.19
2023-02-23T04:22:32.086Z,7.19
2023-02-23T04:25:33.830Z,7.18
2023-02-23T04:28:35.413Z,7.17
2023-02-23T04:31:37.320Z,7.17
2023-02-23T04:34:40.747Z,7.15
2023-02-23T04:37:42.419Z,7.14
2023-02-23T04:40:44.630Z,7.14
2023-02-23T04:43:46.369Z,7.15
2023-02-23T04:46:47.839Z,7.14
2023-02-23T04:49:51.049Z,7.15
2023-02-23T04:52:53.249Z,7.15
2023-02-23T04:55:55.036Z,7.14
2023-02-23T04:58:56.592Z,7.14
2023-02-23T05:01:58.167Z,7.13
2023-02-23T05:05:01.121Z,7.13
2023-02-23T05:08:03.133Z,7.13
2023-02-23T05:11:05.865Z,7.10
2023-02-23T05:14:07.585Z,7.11
2023-02-23T05:17:09.230Z,7.12
2023-02-23T05:20:13.440Z,7.10
2023-02-23T05:23:15.033Z,7.12
2023-02-23T05:26:17.076Z,7.15
2023-02-23T05:29:19.270Z,7.10
2023-02-23T05:32:21.008Z,7.07
2023-02-23T05:35:26.495Z,7.04
2023-02-23T05:38:28.093Z,7.01
2023-02-23T05:41:29.793Z,7.01
2023-02-23T05:44:31.350Z,7.02
2023-02-23T05:47:35.513Z,7.02
2023-02-23T05:50:38.745Z,6.99
2023-02-23T05:53:40.899Z,6.98
2023-02-23T05:56:43.193Z,6.98
2023-02-23T05:59:45.097Z,6.96
2023-02-23T06:02:46.720Z,6.99
2023-02-23T06:05:54.186Z,6.97
2023-02-23T06:08:55.773Z,6.96
2023-02-23T06:11:59.658Z,6.97
2023-02-23T06:15:01.787Z,6.97
2023-02-23T06:18:03.397Z,6.97
2023-02-23T06:21:06.528Z,6.96
2023-02-23T06:24:08.126Z,6.97
2023-02-23T06:27:09.819Z,6.95
2023-02-23T06:30:12.157Z,6.96
2023-02-23T06:33:13.847Z,6.93
2023-02-23T06:36:16.958Z,6.97
2023-02-23T06:39:19.180Z,6.98
2023-02-23T06:42:20.858Z,6.96
2023-02-23T06:45:22.948Z,6.93
2023-02-23T06:48:24.562Z,6.91
2023-02-23T06:51:27.490Z,6.91
2023-02-23T06:54:29.239Z,6.92
2023-02-23T06:57:30.989Z,6.94
2023-02-23T07:00:32.787Z,6.94
2023-02-23T07:03:35.197Z,6.94
2023-02-23T07:06:38.273Z,6.94
2023-02-23T07:09:40.023Z,6.93
2023-02-23T07:12:41.571Z,6.94
2023-02-23T07:15:43.490Z,6.94
2023-02-23T07:18:45.050Z,6.95
2023-02-23T07:21:47.957Z,6.96
2023-02-23T07:24:49.655Z,7.00
2023-02-23T07:27:51.881Z,7.00
2023-02-23T07:30:55.572Z,7.01
2023-02-23T07:33:57.222Z,7.02
2023-02-23T07:37:00.175Z,7.01
2023-02-23T07:40:01.964Z,7.03
2023-02-23T07:43:03.747Z,7.05
2023-02-23T07:46:05.779Z,7.07
2023-02-23T07:49:08.124Z,7.05
2023-02-23T07:52:11.232Z,7.04
2023-02-23T07:55:12.825Z,7.05
2023-02-23T07:58:14.405Z,7.07
2023-02-23T08:01:16.336Z,7.10
2023-02-23T08:04:18.698Z,7.09
2023-02-23T08:07:22.332Z,7.08
2023-02-23T08:10:24.431Z,7.04
2023-02-23T08:13:26.097Z,7.05
2023-02-23T08:16:28.187Z,7.08
2023-02-23T08:19:30.484Z,7.12
2023-02-23T08:22:47.163Z,7.17
2023-02-23T08:25:50.711Z,7.20
2023-02-23T08:28:52.974Z,7.20
2023-02-23T08:31:56.297Z,7.21
2023-02-23T08:35:01.184Z,7.23
2023-02-23T08:38:04.233Z,7.26
2023-02-23T08:41:06.520Z,7.26
2023-02-23T08:44:08.134Z,7.28
2023-02-23T08:47:09.752Z,7.31
2023-02-23T08:50:12.053Z,7.33
2023-02-23T08:53:15.310Z,7.35
2023-02-23T08:59:39.214Z,7.42
2023-02-23T09:02:41.245Z,7.44
2023-02-23T09:05:44.333Z,7.45
2023-02-23T09:08:47.836Z,7.45
2023-02-23T09:11:49.456Z,7.47
2023-02-23T09:14:53.881Z,7.50
2023-02-23T09:17:59.422Z,7.48
2023-02-23T09:21:07.000Z,7.51
2023-02-23T09:24:10.209Z,7.53
2023-02-23T09:27:14.904Z,7.56
2023-02-23T09:30:20.452Z,7.63
2023-02-23T09:33:22.112Z,7.60
2023-02-23T09:36:24.777Z,7.62
2023-02-23T09:39:37.649Z,7.66
2023-02-23T09:42:43.377Z,7.67
2023-02-23T09:45:48.070Z,7.71
2023-02-23T09:48:49.856Z,7.70
2023-02-23T09:51:55.537Z,7.67
2023-02-23T09:54:59.023Z,7.64
2023-02-23T09:58:04.992Z,7.66
2023-02-23T10:01:22.235Z,7.62
2023-02-23T10:04:26.958Z,7.65
2023-02-23T10:07:35.107Z,7.70
2023-02-23T10:10:42.838Z,7.70
2023-02-23T10:13:51.144Z,7.69
2023-02-23T10:17:00.976Z,7.71
2023-02-23T10:20:06.994Z,7.75
2023-02-23T10:23:11.968Z,7.74
2023-02-23T10:26:17.428Z,7.76
2023-02-23T10:29:21.889Z,7.80
2023-02-23T10:32:25.952Z,7.76
2023-02-23T10:35:29.326Z,7.77
2023-02-23T10:38:31.291Z,7.76
2023-02-23T10:41:34.766Z,7.73
2023-02-23T10:44:37.042Z,7.74
2023-02-23T10:47:38.829Z,7.71
2023-02-23T10:50:41.109Z,7.63
2023-02-23T10:53:43.517Z,7.66
2023-02-23T10:56:47.125Z,7.73
2023-02-23T11:00:04.459Z,7.69
2023-02-23T11:03:19.205Z,7.69
2023-02-23T11:06:28.948Z,7.69
2023-02-23T11:09:44.527Z,7.70
2023-02-23T11:12:49.913Z,7.67
2023-02-23T11:16:01.804Z,7.62
2023-02-23T11:19:04.837Z,7.55
2023-02-23T11:22:10.197Z,7.52
2023-02-23T11:25:15.913Z,7.52
2023-02-23T11:28:22.249Z,7.49
2023-02-23T11:31:30.868Z,7.48
2023-02-23T11:34:35.318Z,7.54
2023-02-23T11:37:39.773Z,7.56
2023-02-23T11:40:42.004Z,7.56
2023-02-23T11:43:47.839Z,7.58
2023-02-23T11:46:50.740Z,7.57
2023-02-23T11:49:53.621Z,7.57
2023-02-23T11:52:57.949Z,7.57
2023-02-23T11:56:08.335Z,7.57
2023-02-23T11:59:16.166Z,7.52
2023-02-23T12:02:23.283Z,7.50
2023-02-23T12:05:25.901Z,7.56
2023-02-23T12:08:34.213Z,7.55
2023-02-23T12:11:41.939Z,7.48
2023-02-23T12:14:49.824Z,7.39
2023-02-23T12:17:53.516Z,7.40
2023-02-23T12:20:56.629Z,7.39
2023-02-23T12:24:03.726Z,7.35
2023-02-23T12:27:12.802Z,7.35
2023-02-23T12:30:19.055Z,7.39
2023-02-23T12:33:28.449Z,7.38
2023-02-23T12:36:35.375Z,7.36
2023-02-23T12:39:40.083Z,7.35
2023-02-23T12:42:45.441Z,7.36
2023-02-23T12:45:52.707Z,7.34
2023-02-23T12:49:00.653Z,7.36
2023-02-23T12:52:08.682Z,7.31
2023-02-23T12:55:11.928Z,7.31
2023-02-23T12:58:21.279Z,7.36
2023-02-23T13:01:27.994Z,7.34
2023-02-23T13:04:42.991Z,7.29
2023-02-23T13:07:52.792Z,7.29
2023-02-23T13:11:01.534Z,7.32
2023-02-23T13:14:09.313Z,7.31
2023-02-23T13:17:20.886Z,7.35
2023-02-23T13:20:26.608Z,7.31
2023-02-23T13:23:32.353Z,7.34
2023-02-23T13:26:36.357Z,7.30
2023-02-23T13:29:39.829Z,7.29
2023-02-23T13:32:42.952Z,7.23
2023-02-23T13:35:44.723Z,7.25
2023-02-23T13:38:53.655Z,7.27
2023-02-23T13:42:03.874Z,7.24
2023-02-23T13:45:29.490Z,7.21
2023-02-23T13:48:50.488Z,7.18
2023-02-23T13:51:59.786Z,7.21
2023-02-23T13:55:05.529Z,7.20
2023-02-23T13:58:11.909Z,7.15
2023-02-23T14:01:16.419Z,7.15
2023-02-23T14:04:22.790Z,7.09
2023-02-23T14:07:27.323Z,7.12
2023-02-23T14:10:30.186Z,7.13
2023-02-23T14:13:32.912Z,7.12
2023-02-23T14:16:34.834Z,7.14
2023-02-23T14:23:01.322Z,7.24
2023-02-23T14:26:11.784Z,7.22
2023-02-23T14:29:32.071Z,7.12
2023-02-23T14:32:38.644Z,7.09
2023-02-23T14:35:47.999Z,7.09
2023-02-23T14:38:50.971Z,7.10
2023-02-23T14:41:54.642Z,7.12
2023-02-23T14:44:58.269Z,7.10
2023-02-23T14:48:03.211Z,7.13
2023-02-23T14:51:17.170Z,7.08
2023-02-23T14:54:26.914Z,7.04
2023-02-23T14:57:28.505Z,7.01
2023-02-23T15:00:32.611Z,6.96
2023-02-23T15:03:35.001Z,7.00
2023-02-23T15:06:38.684Z,6.94
2023-02-23T15:09:42.668Z,6.94
2023-02-23T15:12:46.433Z,6.96
2023-02-23T15:15:49.811Z,6.98
2023-02-23T15:19:28.974Z,6.97
2023-02-23T15:22:33.343Z,6.94
2023-02-23T15:25:37.176Z,6.96
2023-02-23T15:28:40.081Z,6.94
2023-02-23T15:31:50.168Z,6.98
2023-02-23T15:34:53.192Z,6.98
2023-02-23T15:38:11.123Z,6.97
2023-02-23T15:41:21.358Z,6.90
2023-02-23T15:44:27.519Z,6.87
2023-02-23T15:47:33.994Z,6.78
2023-02-23T15:50:40.652Z,6.79
2023-02-23T15:53:43.889Z,6.71
2023-02-23T15:56:49.888Z,6.68
2023-02-23T15:59:54.650Z,6.72
2023-02-23T16:02:57.394Z,6.65
2023-02-23T16:06:00.607Z,6.65
2023-02-23T16:09:20.903Z,6.57
2023-02-23T16:12:24.254Z,6.54
2023-02-23T16:15:27.192Z,6.44
2023-02-23T16:18:34.970Z,6.41
2023-02-23T16:21:37.460Z,6.42
2023-02-23T16:24:58.476Z,6.36
2023-02-23T16:28:09.263Z,6.33
2023-02-23T16:31:20.632Z,6.28
2023-02-23T16:34:26.001Z,6.28
2023-02-23T16:37:28.338Z,6.26
2023-02-23T16:40:31.420Z,6.18
2023-02-23T16:43:41.080Z,6.16
2023-02-23T16:46:57.289Z,6.15
2023-02-23T16:50:04.858Z,6.11
2023-02-23T16:53:33.275Z,6.13
2023-02-23T16:56:41.147Z,6.12
2023-02-23T16:59:44.283Z,6.15
2023-02-23T17:02:46.156Z,6.16
2023-02-23T17:05:47.909Z,6.13
2023-02-23T17:08:57.593Z,6.14
2023-02-23T17:11:59.945Z,6.13
2023-02-23T17:15:04.370Z,6.13
2023-02-23T17:18:05.957Z,6.07
2023-02-23T17:21:08.735Z,6.06
2023-02-23T17:24:10.380Z,6.08
2023-02-23T17:27:12.345Z,6.06
2023-02-23T17:30:16.062Z,6.07
2023-02-23T17:33:18.202Z,6.00
2023-02-23T17:36:20.063Z,5.95
2023-02-23T17:39:21.806Z,5.94
2023-02-23T17:42:35.029Z,5.95
2023-02-23T17:45:38.307Z,5.96
2023-02-23T17:48:40.909Z,6.01
2023-02-23T17:51:42.835Z,5.94
2023-02-23T17:54:44.533Z,5.91
2023-02-23T17:57:46.226Z,5.86
2023-02-23T18:00:49.613Z,5.83
2023-02-23T18:03:51.372Z,5.82
2023-02-23T18:06:52.948Z,5.82
2023-02-23T18:09:54.560Z,5.83
2023-02-23T18:12:56.694Z,5.79
2023-02-23T18:16:00.864Z,5.75
2023-02-23T18:19:02.636Z,5.73
2023-02-23T18:22:04.364Z,5.69
2023-02-23T18:28:26.667Z,5.69
2023-02-23T18:31:29.699Z,5.68
2023-02-23T18:34:31.643Z,5.75
2023-02-23T18:37:33.164Z,5.76
2023-02-23T18:40:35.328Z,5.77
2023-02-23T18:43:36.936Z,5.72
2023-02-23T18:46:40.260Z,5.71
2023-02-23T18:49:42.722Z,5.71
2023-02-23T18:52:46.396Z,5.64
2023-02-23T18:55:48.293Z,5.56
2023-02-23T18:58:52.177Z,5.55
2023-02-23T19:06:43.232Z,5.59
2023-02-23T19:09:47.124Z,5.57
2023-02-23T19:12:48.943Z,5.53
2023-02-23T19:15:53.400Z,5.50
2023-02-23T19:18:55.492Z,5.46
2023-02-23T19:21:58.847Z,5.41
2023-02-23T19:25:00.360Z,5.42
2023-02-23T19:28:02.466Z,5.41
2023-02-23T19:31:04.859Z,5.42
2023-02-23T19:34:08.893Z,5.43
2023-02-23T19:37:12.279Z,5.46
2023-02-23T19:40:16.701Z,5.37
2023-02-23T19:46:31.954Z,5.36
2023-02-23T19:49:33.485Z,5.36
2023-02-23T19:52:38.967Z,5.33
2023-02-23T19:55:45.145Z,5.38
2023-02-23T19:58:48.298Z,5.37
2023-02-23T20:01:51.503Z,5.42
2023-02-23T20:04:54.308Z,5.44
2023-02-23T20:07:57.571Z,5.44
2023-02-23T20:10:59.932Z,5.45
2023-02-23T20:14:03.411Z,5.48
2023-02-23T20:17:05.808Z,5.47
2023-02-23T20:20:10.395Z,5.46
2023-02-23T20:23:13.659Z,5.36
2023-02-23T20:26:16.579Z,5.26
2023-02-23T20:29:19.222Z,4.98
2023-02-23T20:32:21.052Z,4.62
2023-02-23T20:35:26.284Z,4.40
2023-02-23T20:38:29.369Z,4.17
2023-02-23T20:41:31.627Z,4.00
2023-02-23T20:44:33.543Z,3.92
2023-02-23T20:47:36.199Z,3.82
2023-02-23T20:50:38.282Z,3.73
2023-02-23T20:53:42.278Z,3.66
2023-02-23T20:56:46.707Z,3.64
2023-02-23T20:59:49.679Z,3.60
2023-02-23T21:02:55.639Z,3.62
2023-02-23T21:05:58.164Z,3.49
2023-02-23T21:09:04.596Z,3.51
2023-02-23T21:12:07.486Z,3.45
2023-02-23T21:15:09.737Z,3.47
2023-02-23T21:18:11.778Z,3.45
2023-02-23T21:21:15.659Z,3.42
2023-02-23T21:24:19.114Z,3.40
2023-02-23T21:27:21.914Z,3.37
2023-02-23T21:30:24.359Z,3.33
2023-02-23T21:33:26.025Z,3.34
2023-02-23T21:36:27.744Z,3.33
2023-02-23T21:39:31.521Z,3.26
2023-02-23T21:42:33.085Z,3.25
2023-02-23T21:45:35.344Z,3.22
2023-02-23T21:48:37.056Z,3.23
2023-02-23T21:51:39.043Z,3.17
2023-02-23T21:54:46.612Z,3.18
2023-02-23T21:57:48.336Z,3.14
2023-02-23T22:00:50.343Z,3.15
2023-02-23T22:03:54.728Z,3.16
2023-02-23T22:06:56.536Z,3.14
2023-02-23T22:09:59.725Z,3.12
2023-02-23T22:13:01.343Z,3.12
2023-02-23T22:16:03.693Z,3.16
2023-02-23T22:19:06.361Z,3.12
2023-02-23T22:22:08.191Z,3.09
2023-02-23T22:25:11.564Z,3.09
2023-02-23T22:28:13.292Z,3.12
2023-02-23T22:31:15.511Z,3.12
2023-02-23T22:34:18.369Z,3.13
2023-02-23T22:37:21.975Z,3.15
2023-02-23T22:40:25.381Z,3.17
2023-02-23T22:43:27.268Z,3.23
2023-02-23T22:46:29.022Z,3.23
2023-02-23T22:49:30.618Z,3.19
2023-02-23T22:52:32.597Z,3.24
2023-02-23T22:58:49.958Z,3.14
2023-02-23T23:01:56.455Z,3.12
2023-02-23T23:04:58.441Z,3.12
2023-02-23T23:08:00.205Z,3.04
2023-02-23T23:11:04.059Z,3.00
2023-02-23T23:14:10.262Z,2.98
2023-02-23T23:17:14.055Z,2.99
2023-02-23T23:20:18.329Z,3.06
2023-02-23T23:23:19.927Z,3.13
2023-02-23T23:26:23.422Z,3.11
2023-02-23T23:29:29.728Z,3.08
2023-02-23T23:32:33.620Z,3.11
2023-02-23T23:35:35.188Z,3.04
2023-02-23T23:38:38.665Z,2.99
2023-02-23T23:41:40.510Z,3.04
2023-02-23T23:44:43.482Z,3.09
2023-02-23T23:47:45.912Z,2.99
2023-02-23T23:50:47.760Z,2.95
2023-02-23T23:53:51.765Z,2.96
2023-02-23T23:56:53.715Z,3.02
2023-02-23T23:59:56.629Z,2.92
